Nelson, Georgia
Current Conditions -  °F | °C
As of 3:15 AM on Thursday 27 Nov 2014 (Local Time) from KCNI Reporting Station
Clear Clear  
Wind Chill: 36°   Ceiling: Unl
Heat Index: 41°   Visibility: 10mi
Dew Point: 25°   Wind: 7mph
Humidity: 53%   Direction: 280°W
Pressure: 30.08"   Gusts: 17mph
Location:  34.38°N, 84.37°W
Report Text: KCNI 270815Z AUTO 28006G15KT 10SM CLR 05/M04 A3008 RMK AO2
Loading
Personal Weather Stations






























Interactive Weather Map New forecast layout! Learn more

10-Day Weather Forecast

Advertisements
Track Severe Weather on mobile